sensor_id;sensor_type;location;lat;lon;timestamp;pressure;altitude;pressure_sealevel;temperature;humidity
16190;BME280;41754;51.498;7.540;2023-06-01T00:02:02;100937.69;;;13.54;67.75
16190;BME280;41754;51.498;7.540;2023-06-01T00:04:30;100943.47;;;13.47;68.09
16190;BME280;41754;51.498;7.540;2023-06-01T00:06:58;100948.88;;;13.45;68.15
16190;BME280;41754;51.498;7.540;2023-06-01T00:09:28;100946.41;;;13.42;68.16
16190;BME280;41754;51.498;7.540;2023-06-01T00:11:55;100950.75;;;13.43;68.09
16190;BME280;41754;51.498;7.540;2023-06-01T00:14:25;100958.25;;;13.36;68.30
16190;BME280;41754;51.498;7.540;2023-06-01T00:16:52;100954.13;;;13.32;68.54
16190;BME280;41754;51.498;7.540;2023-06-01T00:19:22;100954.16;;;13.18;68.86
16190;BME280;41754;51.498;7.540;2023-06-01T00:21:52;100948.13;;;13.16;69.16
16190;BME280;41754;51.498;7.540;2023-06-01T00:24:22;100951.16;;;13.10;69.73
16190;BME280;41754;51.498;7.540;2023-06-01T00:26:51;100937.41;;;13.05;69.91
16190;BME280;41754;51.498;7.540;2023-06-01T00:29:19;100944.59;;;13.03;70.25
16190;BME280;41754;51.498;7.540;2023-06-01T00:31:48;100945.94;;;12.95;70.74
16190;BME280;41754;51.498;7.540;2023-06-01T00:34:16;100933.31;;;12.86;71.23
16190;BME280;41754;51.498;7.540;2023-06-01T00:36:44;100946.44;;;12.88;71.72
16190;BME280;41754;51.498;7.540;2023-06-01T00:39:12;100937.56;;;12.89;71.96
16190;BME280;41754;51.498;7.540;2023-06-01T00:41:40;100933.31;;;12.86;72.20
16190;BME280;41754;51.498;7.540;2023-06-01T00:44:08;100939.84;;;12.80;72.71
16190;BME280;41754;51.498;7.540;2023-06-01T00:46:36;100941.06;;;12.75;73.09
16190;BME280;41754;51.498;7.540;2023-06-01T00:49:06;100942.88;;;12.74;72.71
16190;BME280;41754;51.498;7.540;2023-06-01T00:51:34;100940.06;;;12.63;72.80
16190;BME280;41754;51.498;7.540;2023-06-01T00:54:03;100940.16;;;12.61;72.56
16190;BME280;41754;51.498;7.540;2023-06-01T00:56:31;100929.06;;;12.56;73.24
16190;BME280;41754;51.498;7.540;2023-06-01T00:59:00;100929.84;;;12.44;73.90
16190;BME280;41754;51.498;7.540;2023-06-01T01:01:28;100930.41;;;12.49;73.94
16190;BME280;41754;51.498;7.540;2023-06-01T01:03:58;100927.19;;;12.44;74.03
16190;BME280;41754;51.498;7.540;2023-06-01T01:06:38;100924.56;;;12.44;73.95
16190;BME280;41754;51.498;7.540;2023-06-01T01:09:17;100925.03;;;12.36;74.11
16190;BME280;41754;51.498;7.540;2023-06-01T01:11:52;100926.09;;;12.34;74.14
16190;BME280;41754;51.498;7.540;2023-06-01T01:14:22;100925.63;;;12.27;74.21
16190;BME280;41754;51.498;7.540;2023-06-01T01:16:57;100934.47;;;12.26;75.36
16190;BME280;41754;51.498;7.540;2023-06-01T01:19:48;100934.47;;;12.26;75.34
16190;BME280;41754;51.498;7.540;2023-06-01T01:22:43;100931.06;;;12.24;75.58
16190;BME280;41754;51.498;7.540;2023-06-01T01:25:20;100938.53;;;12.17;76.00
16190;BME280;41754;51.498;7.540;2023-06-01T01:28:03;100933.25;;;12.17;75.96
16190;BME280;41754;51.498;7.540;2023-06-01T01:30:35;100931.53;;;12.16;75.99
16190;BME280;41754;51.498;7.540;2023-06-01T01:33:04;100938.34;;;12.20;75.71
16190;BME280;41754;51.498;7.540;2023-06-01T01:35:32;100939.34;;;12.18;75.67
16190;BME280;41754;51.498;7.540;2023-06-01T01:38:02;100938.31;;;12.06;75.57
16190;BME280;41754;51.498;7.540;2023-06-01T01:40:29;100936.53;;;11.92;76.06
16190;BME280;41754;51.498;7.540;2023-06-01T01:42:58;100941.13;;;11.88;76.42
16190;BME280;41754;51.498;7.540;2023-06-01T01:45:26;100939.75;;;11.81;76.67
16190;BME280;41754;51.498;7.540;2023-06-01T01:48:00;100938.63;;;11.71;76.89
16190;BME280;41754;51.498;7.540;2023-06-01T01:50:36;100937.13;;;11.67;77.15
16190;BME280;41754;51.498;7.540;2023-06-01T01:53:06;100942.41;;;11.67;77.30
16190;BME280;41754;51.498;7.540;2023-06-01T01:55:36;100939.38;;;11.59;77.25
16190;BME280;41754;51.498;7.540;2023-06-01T01:58:04;100932.78;;;11.51;77.44
16190;BME280;41754;51.498;7.540;2023-06-01T02:00:33;100936.50;;;11.47;77.61
16190;BME280;41754;51.498;7.540;2023-06-01T02:03:03;100936.09;;;11.39;77.81
16190;BME280;41754;51.498;7.540;2023-06-01T02:05:31;100938.16;;;11.34;77.97
16190;BME280;41754;51.498;7.540;2023-06-01T02:07:59;100939.78;;;11.37;77.97
16190;BME280;41754;51.498;7.540;2023-06-01T02:10:28;100940.97;;;11.31;77.79
16190;BME280;41754;51.498;7.540;2023-06-01T02:12:56;100941.91;;;11.30;78.40
16190;BME280;41754;51.498;7.540;2023-06-01T02:15:24;100940.03;;;11.32;78.40
16190;BME280;41754;51.498;7.540;2023-06-01T02:17:52;100943.56;;;11.17;78.52
16190;BME280;41754;51.498;7.540;2023-06-01T02:20:21;100944.56;;;11.14;78.62
16190;BME280;41754;51.498;7.540;2023-06-01T02:22:49;100946.44;;;11.12;78.93
16190;BME280;41754;51.498;7.540;2023-06-01T02:25:17;100942.03;;;11.12;79.19
16190;BME280;41754;51.498;7.540;2023-06-01T02:27:46;100945.03;;;11.06;79.03
16190;BME280;41754;51.498;7.540;2023-06-01T02:30:14;100943.06;;;10.94;79.36
16190;BME280;41754;51.498;7.540;2023-06-01T02:32:42;100944.78;;;10.95;79.28
16190;BME280;41754;51.498;7.540;2023-06-01T02:35:12;100950.75;;;10.83;79.49
16190;BME280;41754;51.498;7.540;2023-06-01T02:37:41;100948.69;;;10.72;79.71
16190;BME280;41754;51.498;7.540;2023-06-01T02:40:09;100943.75;;;10.82;79.92
16190;BME280;41754;51.498;7.540;2023-06-01T02:42:38;100948.50;;;10.91;79.62
16190;BME280;41754;51.498;7.540;2023-06-01T02:45:08;100946.38;;;10.98;79.56
16190;BME280;41754;51.498;7.540;2023-06-01T02:47:36;100945.28;;;11.02;79.02
16190;BME280;41754;51.498;7.540;2023-06-01T02:50:05;100944.25;;;11.04;79.09
16190;BME280;41754;51.498;7.540;2023-06-01T02:52:37;100941.03;;;10.99;78.64
16190;BME280;41754;51.498;7.540;2023-06-01T02:55:07;100943.94;;;10.94;78.83
16190;BME280;41754;51.498;7.540;2023-06-01T02:57:49;100938.47;;;10.98;79.03
16190;BME280;41754;51.498;7.540;2023-06-01T03:00:17;100946.66;;;10.93;78.62
16190;BME280;41754;51.498;7.540;2023-06-01T03:02:48;100945.28;;;11.02;79.10
16190;BME280;41754;51.498;7.540;2023-06-01T03:05:16;100944.06;;;11.07;78.72
16190;BME280;41754;51.498;7.540;2023-06-01T03:07:50;100949.34;;;11.07;77.80
16190;BME280;41754;51.498;7.540;2023-06-01T03:10:25;100945.13;;;11.05;78.47
16190;BME280;41754;51.498;7.540;2023-06-01T03:13:09;100947.50;;;11.09;78.10
16190;BME280;41754;51.498;7.540;2023-06-01T03:15:37;100947.50;;;11.09;78.45
16190;BME280;41754;51.498;7.540;2023-06-01T03:18:05;100951.56;;;10.99;77.90
16190;BME280;41754;51.498;7.540;2023-06-01T03:20:34;100939.84;;;10.89;78.20
16190;BME280;41754;51.498;7.540;2023-06-01T03:23:02;100947.31;;;10.81;78.69
16190;BME280;41754;51.498;7.540;2023-06-01T03:25:31;100948.00;;;10.68;78.94
16190;BME280;41754;51.498;7.540;2023-06-01T03:27:59;100943.25;;;10.59;79.30
16190;BME280;41754;51.498;7.540;2023-06-01T03:30:27;100946.22;;;10.53;79.47
16190;BME280;41754;51.498;7.540;2023-06-01T03:32:55;100947.75;;;10.57;79.41
16190;BME280;41754;51.498;7.540;2023-06-01T03:35:23;100953.16;;;10.54;79.71
16190;BME280;41754;51.498;7.540;2023-06-01T03:37:51;100947.84;;;10.71;79.54
16190;BME280;41754;51.498;7.540;2023-06-01T03:40:19;100963.47;;;10.74;79.68
16190;BME280;41754;51.498;7.540;2023-06-01T03:42:49;100964.31;;;10.75;78.86
16190;BME280;41754;51.498;7.540;2023-06-01T03:45:17;100966.59;;;10.49;78.80
16190;BME280;41754;51.498;7.540;2023-06-01T03:47:45;100959.59;;;10.32;79.13
16190;BME280;41754;51.498;7.540;2023-06-01T03:50:13;100958.66;;;10.33;79.22
16190;BME280;41754;51.498;7.540;2023-06-01T03:52:42;100956.31;;;10.27;79.17
16190;BME280;41754;51.498;7.540;2023-06-01T03:55:11;100952.31;;;10.20;78.89
16190;BME280;41754;51.498;7.540;2023-06-01T03:57:59;100954.66;;;10.09;79.18
16190;BME280;41754;51.498;7.540;2023-06-01T04:00:29;100952.91;;;10.09;79.00
16190;BME280;41754;51.498;7.540;2023-06-01T04:02:59;100954.66;;;10.09;78.97
16190;BME280;41754;51.498;7.540;2023-06-01T04:05:30;100962.16;;;10.16;78.75
16190;BME280;41754;51.498;7.540;2023-06-01T04:07:59;100957.75;;;10.17;78.19
16190;BME280;41754;51.498;7.540;2023-06-01T04:10:27;100963.59;;;10.22;78.13
16190;BME280;41754;51.498;7.540;2023-06-01T04:12:55;100962.38;;;10.29;78.21
16190;BME280;41754;51.498;7.540;2023-06-01T04:15:27;100966.16;;;10.41;77.33
16190;BME280;41754;51.498;7.540;2023-06-01T04:17:57;100970.81;;;10.52;76.95
16190;BME280;41754;51.498;7.540;2023-06-01T04:20:25;100963.59;;;10.39;76.52
16190;BME280;41754;51.498;7.540;2023-06-01T04:22:53;100962.75;;;10.21;76.74
16190;BME280;41754;51.498;7.540;2023-06-01T04:25:21;100968.59;;;10.11;76.46
16190;BME280;41754;51.498;7.540;2023-06-01T04:27:50;100978.19;;;9.94;76.99
16190;BME280;41754;51.498;7.540;2023-06-01T04:30:22;100973.63;;;9.98;77.43
16190;BME280;41754;51.498;7.540;2023-06-01T04:32:51;100975.91;;;10.21;76.93
16190;BME280;41754;51.498;7.540;2023-06-01T04:35:21;100978.31;;;10.26;76.68
16190;BME280;41754;51.498;7.540;2023-06-01T04:37:49;100975.06;;;10.21;76.67
16190;BME280;41754;51.498;7.540;2023-06-01T04:40:17;100972.25;;;9.91;77.08
16190;BME280;41754;51.498;7.540;2023-06-01T04:42:45;100983.16;;;10.00;77.34
16190;BME280;41754;51.498;7.540;2023-06-01T04:45:17;100975.81;;;9.90;77.44
16190;BME280;41754;51.498;7.540;2023-06-01T04:47:45;100977.47;;;10.08;77.72
16190;BME280;41754;51.498;7.540;2023-06-01T04:50:20;100979.47;;;10.20;77.44
16190;BME280;41754;51.498;7.540;2023-06-01T04:52:48;100981.09;;;10.23;77.07
16190;BME280;41754;51.498;7.540;2023-06-01T04:55:16;100977.78;;;10.19;76.26
16190;BME280;41754;51.498;7.540;2023-06-01T04:57:44;100976.56;;;10.09;77.02
16190;BME280;41754;51.498;7.540;2023-06-01T05:00:14;100972.75;;;10.32;78.06
16190;BME280;41754;51.498;7.540;2023-06-01T05:02:45;100973.69;;;10.14;77.82
16190;BME280;41754;51.498;7.540;2023-06-01T05:05:15;100975.81;;;10.23;77.10
16190;BME280;41754;51.498;7.540;2023-06-01T05:07:46;100974.56;;;10.30;77.17
16190;BME280;41754;51.498;7.540;2023-06-01T05:10:16;100963.19;;;10.14;76.96
16190;BME280;41754;51.498;7.540;2023-06-01T05:12:46;100968.09;;;10.20;76.63
16190;BME280;41754;51.498;7.540;2023-06-01T05:15:16;100966.94;;;10.26;77.15
16190;BME280;41754;51.498;7.540;2023-06-01T05:17:44;100960.66;;;10.28;76.42
16190;BME280;41754;51.498;7.540;2023-06-01T05:20:18;100970.53;;;10.40;76.32
16190;BME280;41754;51.498;7.540;2023-06-01T05:22:55;100974.22;;;10.54;75.65
16190;BME280;41754;51.498;7.540;2023-06-01T05:25:23;100966.44;;;10.52;75.53
16190;BME280;41754;51.498;7.540;2023-06-01T05:27:51;100966.00;;;10.44;75.58
16190;BME280;41754;51.498;7.540;2023-06-01T05:30:19;100972.00;;;10.29;76.01
16190;BME280;41754;51.498;7.540;2023-06-01T05:32:49;100971.50;;;10.39;75.37
16190;BME280;41754;51.498;7.540;2023-06-01T05:35:19;100967.31;;;10.35;75.69
16190;BME280;41754;51.498;7.540;2023-06-01T05:37:48;100975.75;;;10.25;75.25
16190;BME280;41754;51.498;7.540;2023-06-01T05:40:18;100972.19;;;10.26;75.32
16190;BME280;41754;51.498;7.540;2023-06-01T05:42:46;100968.34;;;10.15;75.47
16190;BME280;41754;51.498;7.540;2023-06-01T05:45:14;100971.69;;;10.19;75.31
16190;BME280;41754;51.498;7.540;2023-06-01T05:47:42;100971.69;;;10.19;75.37
16190;BME280;41754;51.498;7.540;2023-06-01T05:50:10;100977.09;;;10.16;75.49
16190;BME280;41754;51.498;7.540;2023-06-01T05:52:38;100977.28;;;10.29;75.92
16190;BME280;41754;51.498;7.540;2023-06-01T05:55:09;100981.94;;;10.24;75.05
16190;BME280;41754;51.498;7.540;2023-06-01T05:57:38;100980.16;;;10.24;74.93
16190;BME280;41754;51.498;7.540;2023-06-01T06:00:07;100982.97;;;10.21;74.60
16190;BME280;41754;51.498;7.540;2023-06-01T06:02:41;100974.28;;;10.36;74.54
16190;BME280;41754;51.498;7.540;2023-06-01T06:05:09;100982.94;;;10.38;73.87
16190;BME280;41754;51.498;7.540;2023-06-01T06:07:37;100981.41;;;10.34;74.38
16190;BME280;41754;51.498;7.540;2023-06-01T06:10:07;100977.50;;;10.42;74.45
16190;BME280;41754;51.498;7.540;2023-06-01T06:12:35;100976.69;;;10.57;73.79
16190;BME280;41754;51.498;7.540;2023-06-01T06:15:05;100969.75;;;10.88;72.54
16190;BME280;41754;51.498;7.540;2023-06-01T06:17:33;100971.59;;;10.86;72.28
16190;BME280;41754;51.498;7.540;2023-06-01T06:20:02;100974.22;;;10.86;72.29
16190;BME280;41754;51.498;7.540;2023-06-01T06:22:33;100974.16;;;10.87;72.00
16190;BME280;41754;51.498;7.540;2023-06-01T06:25:01;100980.59;;;10.98;72.00
16190;BME280;41754;51.498;7.540;2023-06-01T06:27:29;100982.06;;;11.03;72.37
16190;BME280;41754;51.498;7.540;2023-06-01T06:29:56;100974.81;;;11.23;71.16
16190;BME280;41754;51.498;7.540;2023-06-01T06:32:26;100979.16;;;10.92;71.42
16190;BME280;41754;51.498;7.540;2023-06-01T06:34:57;100970.06;;;10.98;71.79
16190;BME280;41754;51.498;7.540;2023-06-01T06:37:27;100975.66;;;11.07;70.79
16190;BME280;41754;51.498;7.540;2023-06-01T06:39:55;100974.44;;;11.29;70.16
16190;BME280;41754;51.498;7.540;2023-06-01T06:42:23;100981.25;;;11.33;70.52
16190;BME280;41754;51.498;7.540;2023-06-01T06:44:52;100976.84;;;11.18;69.74
16190;BME280;41754;51.498;7.540;2023-06-01T06:47:19;100986.16;;;11.39;69.50
16190;BME280;41754;51.498;7.540;2023-06-01T06:49:49;100989.84;;;11.37;69.23
16190;BME280;41754;51.498;7.540;2023-06-01T06:52:18;100977.47;;;11.53;68.86
16190;BME280;41754;51.498;7.540;2023-06-01T06:54:46;100987.72;;;11.58;68.40
16190;BME280;41754;51.498;7.540;2023-06-01T06:57:13;100990.25;;;11.45;68.34
16190;BME280;41754;51.498;7.540;2023-06-01T06:59:41;100989.84;;;11.37;68.08
16190;BME280;41754;51.498;7.540;2023-06-01T07:02:09;100994.06;;;11.69;67.04
16190;BME280;41754;51.498;7.540;2023-06-01T07:04:38;101006.31;;;12.01;66.78
16190;BME280;41754;51.498;7.540;2023-06-01T07:07:08;100991.34;;;11.71;66.56
16190;BME280;41754;51.498;7.540;2023-06-01T07:09:36;100989.28;;;12.21;65.39
16190;BME280;41754;51.498;7.540;2023-06-01T07:12:05;100992.47;;;11.97;65.23
16190;BME280;41754;51.498;7.540;2023-06-01T07:14:33;101000.28;;;12.13;65.39
16190;BME280;41754;51.498;7.540;2023-06-01T07:17:01;101002.19;;;11.97;66.32
16190;BME280;41754;51.498;7.540;2023-06-01T07:19:29;101002.94;;;12.13;64.97
16190;BME280;41754;51.498;7.540;2023-06-01T07:22:00;100998.59;;;11.98;65.10
16190;BME280;41754;51.498;7.540;2023-06-01T07:24:29;100995.31;;;12.09;65.38
16190;BME280;41754;51.498;7.540;2023-06-01T07:26:57;100998.06;;;12.36;65.32
16190;BME280;41754;51.498;7.540;2023-06-01T07:29:26;101004.84;;;12.54;64.40
16190;BME280;41754;51.498;7.540;2023-06-01T07:31:54;101002.63;;;12.90;64.55
16190;BME280;41754;51.498;7.540;2023-06-01T07:34:22;101006.00;;;12.92;63.34
16190;BME280;41754;51.498;7.540;2023-06-01T07:36:51;101008.28;;;12.84;62.55
16190;BME280;41754;51.498;7.540;2023-06-01T07:39:29;100999.16;;;12.75;62.84
16190;BME280;41754;51.498;7.540;2023-06-01T07:41:56;100995.97;;;12.70;63.50
16190;BME280;41754;51.498;7.540;2023-06-01T07:44:24;101002.00;;;12.72;63.62
16190;BME280;41754;51.498;7.540;2023-06-01T07:46:52;100999.81;;;12.78;63.78
16190;BME280;41754;51.498;7.540;2023-06-01T07:49:20;101004.63;;;13.13;62.23
16190;BME280;41754;51.498;7.540;2023-06-01T07:51:48;101001.59;;;13.34;63.92
16190;BME280;41754;51.498;7.540;2023-06-01T07:54:18;101011.16;;;13.49;60.90
16190;BME280;41754;51.498;7.540;2023-06-01T07:56:54;101009.22;;;13.39;60.30
16190;BME280;41754;51.498;7.540;2023-06-01T07:59:26;101004.56;;;13.42;60.98
16190;BME280;41754;51.498;7.540;2023-06-01T08:01:54;101006.75;;;13.76;61.46
16190;BME280;41754;51.498;7.540;2023-06-01T08:04:23;101005.13;;;14.00;60.52
16190;BME280;41754;51.498;7.540;2023-06-01T08:06:51;101006.75;;;13.76;58.93
16190;BME280;41754;51.498;7.540;2023-06-01T08:09:21;101008.78;;;13.17;61.27
16190;BME280;41754;51.498;7.540;2023-06-01T08:11:51;101001.06;;;13.82;59.50
16190;BME280;41754;51.498;7.540;2023-06-01T08:14:20;100998.88;;;14.01;58.68
16190;BME280;41754;51.498;7.540;2023-06-01T08:16:48;101000.75;;;13.99;58.72
16190;BME280;41754;51.498;7.540;2023-06-01T08:19:17;101003.84;;;13.93;57.88
16190;BME280;41754;51.498;7.540;2023-06-01T08:21:45;100997.50;;;14.21;58.86
16190;BME280;41754;51.498;7.540;2023-06-01T08:24:13;100991.16;;;14.24;57.13
16190;BME280;41754;51.498;7.540;2023-06-01T08:26:43;100988.28;;;14.27;57.16
16190;BME280;41754;51.498;7.540;2023-06-01T08:29:12;100985.75;;;14.38;57.18
16190;BME280;41754;51.498;7.540;2023-06-01T08:31:40;100990.72;;;14.43;58.29
16190;BME280;41754;51.498;7.540;2023-06-01T08:34:08;100986.47;;;14.27;58.23
16190;BME280;41754;51.498;7.540;2023-06-01T08:36:35;100984.97;;;14.49;58.65
16190;BME280;41754;51.498;7.540;2023-06-01T08:39:21;100983.50;;;14.71;55.36
16190;BME280;41754;51.498;7.540;2023-06-01T08:41:58;100986.41;;;14.92;57.03
16190;BME280;41754;51.498;7.540;2023-06-01T08:44:35;100981.00;;;14.93;56.24
16190;BME280;41754;51.498;7.540;2023-06-01T08:47:05;100977.78;;;14.64;56.29
16190;BME280;41754;51.498;7.540;2023-06-01T08:49:34;100974.38;;;14.49;57.83
16190;BME280;41754;51.498;7.540;2023-06-01T08:52:06;100974.28;;;14.51;57.11
16190;BME280;41754;51.498;7.540;2023-06-01T08:54:34;100971.13;;;14.45;57.04
16190;BME280;41754;51.498;7.540;2023-06-01T08:57:04;100971.41;;;14.54;56.41
16190;BME280;41754;51.498;7.540;2023-06-01T08:59:35;100967.72;;;14.69;55.73
16190;BME280;41754;51.498;7.540;2023-06-01T09:02:06;100967.66;;;14.06;56.52
16190;BME280;41754;51.498;7.540;2023-06-01T09:04:34;100955.66;;;14.65;56.35
16190;BME280;41754;51.498;7.540;2023-06-01T09:07:05;100956.78;;;14.98;54.81
16190;BME280;41754;51.498;7.540;2023-06-01T09:09:33;100950.63;;;15.10;55.51
16190;BME280;41754;51.498;7.540;2023-06-01T09:12:19;100945.34;;;15.21;54.02
16190;BME280;41754;51.498;7.540;2023-06-01T09:14:48;100953.19;;;14.99;54.58
16190;BME280;41754;51.498;7.540;2023-06-01T09:17:21;100953.63;;;15.41;55.20
16190;BME280;41754;51.498;7.540;2023-06-01T09:19:53;100943.47;;;15.35;54.12
16190;BME280;41754;51.498;7.540;2023-06-01T09:22:22;100951.13;;;15.86;53.02
16190;BME280;41754;51.498;7.540;2023-06-01T09:24:56;100942.34;;;15.62;53.76
16190;BME280;41754;51.498;7.540;2023-06-01T09:27:25;100941.47;;;15.97;53.49
16190;BME280;41754;51.498;7.540;2023-06-01T09:29:56;100946.47;;;16.12;52.63
16190;BME280;41754;51.498;7.540;2023-06-01T09:32:25;100939.53;;;15.76;52.37
16190;BME280;41754;51.498;7.540;2023-06-01T09:34:54;100944.13;;;15.85;51.78
16190;BME280;41754;51.498;7.540;2023-06-01T09:37:22;100941.28;;;16.22;50.90
16190;BME280;41754;51.498;7.540;2023-06-01T09:39:50;100932.97;;;15.69;52.52
16190;BME280;41754;51.498;7.540;2023-06-01T09:42:30;100934.00;;;16.02;52.57
16190;BME280;41754;51.498;7.540;2023-06-01T09:45:14;100935.47;;;16.51;51.71
16190;BME280;41754;51.498;7.540;2023-06-01T09:47:43;100937.16;;;16.07;50.64
16190;BME280;41754;51.498;7.540;2023-06-01T09:50:32;100930.66;;;16.22;51.92
16190;BME280;41754;51.498;7.540;2023-06-01T09:53:00;100923.09;;;16.73;51.20
16190;BME280;41754;51.498;7.540;2023-06-01T09:55:28;100918.56;;;16.96;49.11
16190;BME280;41754;51.498;7.540;2023-06-01T09:58:18;100924.31;;;17.12;49.35
16190;BME280;41754;51.498;7.540;2023-06-01T10:00:49;100916.72;;;17.08;49.56
16190;BME280;41754;51.498;7.540;2023-06-01T10:03:19;100917.75;;;16.84;50.55
16190;BME280;41754;51.498;7.540;2023-06-01T10:05:49;100913.00;;;16.99;49.18
16190;BME280;41754;51.498;7.540;2023-06-01T10:08:18;100917.50;;;16.98;49.83
16190;BME280;41754;51.498;7.540;2023-06-01T10:10:48;100925.56;;;17.29;49.73
16190;BME280;41754;51.498;7.540;2023-06-01T10:13:16;100918.34;;;17.52;47.77
16190;BME280;41754;51.498;7.540;2023-06-01T10:15:45;100916.88;;;17.69;47.44
16190;BME280;41754;51.498;7.540;2023-06-01T10:18:14;100919.81;;;17.24;47.78
16190;BME280;41754;51.498;7.540;2023-06-01T10:20:44;100910.03;;;16.92;49.21
16190;BME280;41754;51.498;7.540;2023-06-01T10:23:12;100902.28;;;17.42;48.87
16190;BME280;41754;51.498;7.540;2023-06-01T10:25:47;100896.72;;;18.19;47.38
16190;BME280;41754;51.498;7.540;2023-06-01T10:28:18;100904.44;;;18.31;46.82
16190;BME280;41754;51.498;7.540;2023-06-01T10:33:55;100898.00;;;19.14;48.88
16190;BME280;41754;51.498;7.540;2023-06-01T10:36:24;100892.56;;;19.05;48.09
16190;BME280;41754;51.498;7.540;2023-06-01T10:39:21;100899.97;;;19.02;48.57
16190;BME280;41754;51.498;7.540;2023-06-01T10:41:49;100886.47;;;18.74;46.45
16190;BME280;41754;51.498;7.540;2023-06-01T10:44:45;100893.94;;;19.00;49.10
16190;BME280;41754;51.498;7.540;2023-06-01T10:47:44;100893.75;;;18.62;45.79
16190;BME280;41754;51.498;7.540;2023-06-01T10:50:15;100890.38;;;18.50;46.66
16190;BME280;41754;51.498;7.540;2023-06-01T10:52:47;100891.81;;;18.94;48.06
16190;BME280;41754;51.498;7.540;2023-06-01T10:55:23;100882.53;;;19.37;49.16
16190;BME280;41754;51.498;7.540;2023-06-01T10:58:19;100890.56;;;19.94;46.71
16190;BME280;41754;51.498;7.540;2023-06-01T11:00:49;100887.72;;;20.05;44.53
16190;BME280;41754;51.498;7.540;2023-06-01T11:03:43;100887.56;;;20.34;43.64
16190;BME280;41754;51.498;7.540;2023-06-01T11:06:29;100879.91;;;20.95;43.60
16190;BME280;41754;51.498;7.540;2023-06-01T11:08:59;100876.06;;;21.16;41.86
16190;BME280;41754;51.498;7.540;2023-06-01T11:11:57;100888.81;;;20.86;45.26
16190;BME280;41754;51.498;7.540;2023-06-01T11:14:27;100885.53;;;20.92;42.22
16190;BME280;41754;51.498;7.540;2023-06-01T11:17:25;100884.69;;;20.73;43.09
16190;BME280;41754;51.498;7.540;2023-06-01T11:20:02;100885.03;;;20.61;41.38
16190;BME280;41754;51.498;7.540;2023-06-01T11:22:39;100889.81;;;21.21;42.58
16190;BME280;41754;51.498;7.540;2023-06-01T11:25:08;100897.88;;;21.73;44.73
16190;BME280;41754;51.498;7.540;2023-06-01T11:27:36;100890.25;;;21.86;40.61
16190;BME280;41754;51.498;7.540;2023-06-01T11:30:05;100885.56;;;21.54;39.98
16190;BME280;41754;51.498;7.540;2023-06-01T11:32:34;100895.50;;;21.44;40.07
16190;BME280;41754;51.498;7.540;2023-06-01T11:35:17;100893.38;;;22.08;40.87
16190;BME280;41754;51.498;7.540;2023-06-01T11:37:46;100884.34;;;22.44;40.57
16190;BME280;41754;51.498;7.540;2023-06-01T11:40:20;100888.41;;;22.21;40.06
16190;BME280;41754;51.498;7.540;2023-06-01T11:42:48;100883.47;;;22.35;40.99
16190;BME280;41754;51.498;7.540;2023-06-01T11:45:17;100882.34;;;22.54;40.92
16190;BME280;41754;51.498;7.540;2023-06-01T11:47:45;100884.16;;;22.45;39.27
16190;BME280;41754;51.498;7.540;2023-06-01T11:50:23;100884.16;;;22.45;37.94
16190;BME280;41754;51.498;7.540;2023-06-01T11:52:55;100883.13;;;22.30;38.52
16190;BME280;41754;51.498;7.540;2023-06-01T11:55:26;100883.69;;;22.15;38.21
16190;BME280;41754;51.498;7.540;2023-06-01T11:57:54;100889.06;;;22.58;40.16
16190;BME280;41754;51.498;7.540;2023-06-01T12:00:22;100883.25;;;22.87;38.32
16190;BME280;41754;51.498;7.540;2023-06-01T12:03:05;100882.50;;;22.10;38.97
16190;BME280;41754;51.498;7.540;2023-06-01T12:05:38;100883.03;;;21.79;40.04
16190;BME280;41754;51.498;7.540;2023-06-01T12:08:12;100880.22;;;21.80;38.98
16190;BME280;41754;51.498;7.540;2023-06-01T12:10:43;100881.25;;;22.89;38.81
16190;BME280;41754;51.498;7.540;2023-06-01T12:13:12;100883.63;;;23.09;38.92
16190;BME280;41754;51.498;7.540;2023-06-01T12:15:40;100887.16;;;23.09;38.77
16190;BME280;41754;51.498;7.540;2023-06-01T12:18:08;100890.28;;;22.72;40.96
16190;BME280;41754;51.498;7.540;2023-06-01T12:20:37;100886.78;;;22.88;37.82
16190;BME280;41754;51.498;7.540;2023-06-01T12:23:14;100890.63;;;22.77;38.31
16190;BME280;41754;51.498;7.540;2023-06-01T12:25:49;100886.97;;;23.36;38.09
16190;BME280;41754;51.498;7.540;2023-06-01T12:28:18;100877.38;;;22.84;37.58
16190;BME280;41754;51.498;7.540;2023-06-01T12:30:46;100876.91;;;22.96;40.14
16190;BME280;41754;51.498;7.540;2023-06-01T12:33:31;100874.00;;;22.14;39.13
16190;BME280;41754;51.498;7.540;2023-06-01T12:36:00;100884.13;;;21.94;41.73
16190;BME280;41754;51.498;7.540;2023-06-01T12:38:34;100877.59;;;23.15;38.81
16190;BME280;41754;51.498;7.540;2023-06-01T12:41:05;100874.25;;;23.21;36.13
16190;BME280;41754;51.498;7.540;2023-06-01T12:43:34;100879.50;;;22.55;36.95
16190;BME280;41754;51.498;7.540;2023-06-01T12:46:03;100873.88;;;22.83;37.53
16190;BME280;41754;51.498;7.540;2023-06-01T12:48:32;100872.00;;;23.49;40.04
16190;BME280;41754;51.498;7.540;2023-06-01T12:51:01;100877.25;;;24.15;35.17
16190;BME280;41754;51.498;7.540;2023-06-01T12:53:32;100868.94;;;23.77;35.05
16190;BME280;41754;51.498;7.540;2023-06-01T12:56:00;100874.84;;;23.64;36.19
16190;BME280;41754;51.498;7.540;2023-06-01T12:58:27;100873.22;;;23.39;37.48
16190;BME280;41754;51.498;7.540;2023-06-01T13:00:55;100879.22;;;24.53;35.96
16190;BME280;41754;51.498;7.540;2023-06-01T13:03:23;100878.84;;;24.64;34.99
16190;BME280;41754;51.498;7.540;2023-06-01T13:05:51;100872.97;;;24.84;34.81
16190;BME280;41754;51.498;7.540;2023-06-01T13:08:19;100873.72;;;24.46;33.66
16190;BME280;41754;51.498;7.540;2023-06-01T13:10:50;100867.59;;;24.29;33.97
16190;BME280;41754;51.498;7.540;2023-06-01T13:13:18;100869.69;;;24.11;35.33